createdAt,value
2017-11-28T00:01:05.988Z,2.22
2017-11-28T00:03:32.158Z,2.24
2017-11-28T00:05:58.445Z,2.20
2017-11-28T00:08:24.609Z,2.15
2017-11-28T00:10:50.791Z,2.19
2017-11-28T00:13:17.001Z,2.18
2017-11-28T00:15:43.216Z,2.21
2017-11-28T00:18:09.396Z,2.28
2017-11-28T00:20:35.623Z,2.25
2017-11-28T00:23:01.801Z,2.18
2017-11-28T00:25:28.004Z,2.15
2017-11-28T00:27:54.184Z,2.16
2017-11-28T00:30:20.462Z,2.27
2017-11-28T00:32:46.660Z,2.25
2017-11-28T00:35:12.826Z,2.30
2017-11-28T00:37:39.047Z,2.31
2017-11-28T00:40:05.439Z,2.33
2017-11-28T00:42:31.626Z,2.29
2017-11-28T00:44:57.875Z,2.33
2017-11-28T00:47:24.039Z,2.36
2017-11-28T00:49:50.233Z,2.43
2017-11-28T00:52:16.455Z,2.44
2017-11-28T00:54:42.609Z,2.42
2017-11-28T00:57:08.787Z,2.43
2017-11-28T00:59:35.011Z,2.46
2017-11-28T01:02:01.188Z,2.47
2017-11-28T01:04:27.423Z,2.49
2017-11-28T01:06:53.675Z,2.52
2017-11-28T01:09:19.985Z,2.50
2017-11-28T01:11:46.243Z,2.44
2017-11-28T01:14:12.516Z,2.51
2017-11-28T01:16:38.738Z,2.41
2017-11-28T01:19:04.973Z,2.36
2017-11-28T01:21:31.232Z,2.33
2017-11-28T01:23:57.461Z,2.34
2017-11-28T01:26:23.687Z,2.33
2017-11-28T01:28:50.020Z,2.26
2017-11-28T01:31:16.280Z,2.28
2017-11-28T01:33:42.508Z,2.21
2017-11-28T01:36:08.780Z,2.29
2017-11-28T01:38:35.014Z,2.30
2017-11-28T01:41:01.252Z,2.35
2017-11-28T01:43:27.515Z,2.32
2017-11-28T01:45:53.747Z,2.33
2017-11-28T01:48:19.979Z,2.32
2017-11-28T01:50:46.240Z,2.41
2017-11-28T01:53:12.478Z,2.41
2017-11-28T01:55:38.719Z,2.45
2017-11-28T01:58:04.985Z,2.50
2017-11-28T02:00:31.200Z,2.56
2017-11-28T02:02:57.636Z,2.60
2017-11-28T02:05:23.924Z,2.65
2017-11-28T02:07:50.163Z,2.72
2017-11-28T02:10:16.409Z,2.75
2017-11-28T02:12:42.687Z,2.76
2017-11-28T02:15:08.909Z,2.78
2017-11-28T02:17:35.143Z,2.84
2017-11-28T02:20:01.404Z,2.85
2017-11-28T02:22:27.645Z,2.87
2017-11-28T02:24:53.885Z,2.89
2017-11-28T02:27:20.152Z,2.73
2017-11-28T02:29:46.382Z,2.89
2017-11-28T02:32:12.613Z,2.89
2017-11-28T02:34:38.894Z,2.92
2017-11-28T02:37:05.131Z,2.96
2017-11-28T02:39:31.352Z,2.97
2017-11-28T02:41:57.735Z,2.99
2017-11-28T02:44:23.960Z,2.91
2017-11-28T02:46:50.197Z,2.84
2017-11-28T02:49:16.470Z,2.88
2017-11-28T02:51:42.710Z,2.93
2017-11-28T02:54:08.957Z,2.95
2017-11-28T02:56:35.238Z,2.99
2017-11-28T02:59:01.473Z,3.03
2017-11-28T03:01:27.731Z,3.08
2017-11-28T03:03:54.025Z,3.12
2017-11-28T03:06:20.263Z,3.08
2017-11-28T03:08:46.502Z,3.05
2017-11-28T03:11:12.768Z,2.98
2017-11-28T03:13:39.132Z,3.01
2017-11-28T03:16:05.361Z,3.01
2017-11-28T03:18:31.917Z,3.04
2017-11-28T03:20:58.381Z,3.07
2017-11-28T03:23:24.837Z,3.10
2017-11-28T03:25:51.109Z,3.15
2017-11-28T03:28:17.335Z,3.20
2017-11-28T03:30:43.556Z,3.20
2017-11-28T03:33:10.117Z,3.02
2017-11-28T03:35:36.335Z,3.07
2017-11-28T03:38:03.398Z,3.12
2017-11-28T03:40:29.664Z,3.17
2017-11-28T03:42:55.898Z,3.18
2017-11-28T03:45:22.123Z,3.17
2017-11-28T03:47:48.384Z,3.19
2017-11-28T03:50:14.756Z,3.12
2017-11-28T03:52:40.997Z,3.05
2017-11-28T03:55:07.276Z,3.13
2017-11-28T03:57:33.501Z,3.13
2017-11-28T03:59:59.724Z,3.13
2017-11-28T04:02:25.988Z,3.15
2017-11-28T04:04:52.212Z,3.14
2017-11-28T04:07:18.500Z,3.19
2017-11-28T04:09:44.782Z,3.20
2017-11-28T04:12:11.009Z,3.16
2017-11-28T04:14:37.221Z,3.14
2017-11-28T04:17:03.494Z,3.14
2017-11-28T04:19:29.728Z,3.14
2017-11-28T04:21:55.982Z,3.18
2017-11-28T04:24:22.356Z,3.19
2017-11-28T04:26:48.595Z,3.23
2017-11-28T04:29:14.834Z,3.23
2017-11-28T04:31:41.106Z,3.12
2017-11-28T04:34:07.350Z,3.06
2017-11-28T04:36:33.725Z,3.09
2017-11-28T04:39:00.359Z,3.18
2017-11-28T04:41:26.886Z,3.20
2017-11-28T04:43:53.373Z,3.20
2017-11-28T04:46:19.646Z,3.26
2017-11-28T04:48:45.898Z,3.25
2017-11-28T04:51:12.139Z,3.23
2017-11-28T04:53:38.434Z,3.21
2017-11-28T04:56:04.684Z,3.21
2017-11-28T04:58:30.917Z,3.26
2017-11-28T05:00:57.193Z,3.27
2017-11-28T05:03:23.432Z,3.28
2017-11-28T05:05:49.668Z,3.30
2017-11-28T05:08:15.960Z,3.33
2017-11-28T05:10:42.204Z,3.38
2017-11-28T05:13:08.445Z,3.34
2017-11-28T05:15:34.699Z,3.38
2017-11-28T05:18:00.929Z,3.43
2017-11-28T05:20:27.162Z,3.39
2017-11-28T05:22:53.493Z,3.38
2017-11-28T05:25:19.724Z,3.34
2017-11-28T05:27:45.960Z,3.43
2017-11-28T05:30:12.238Z,3.37
2017-11-28T05:32:38.496Z,3.38
2017-11-28T05:35:04.739Z,3.43
2017-11-28T05:37:31.031Z,3.37
2017-11-28T05:39:57.264Z,3.38
2017-11-28T05:42:23.487Z,3.44
2017-11-28T05:44:49.757Z,3.48
2017-11-28T05:47:15.981Z,3.54
2017-11-28T05:49:42.227Z,3.56
2017-11-28T05:52:08.496Z,3.56
2017-11-28T05:54:34.731Z,3.50
2017-11-28T05:57:01.087Z,3.54
2017-11-28T05:59:27.319Z,3.52
2017-11-28T06:01:53.652Z,3.52
2017-11-28T06:04:19.898Z,3.56
2017-11-28T06:06:46.393Z,3.48
2017-11-28T06:09:12.834Z,3.49
2017-11-28T06:11:39.251Z,3.57
2017-11-28T06:14:05.939Z,3.62
2017-11-28T06:16:32.559Z,3.68
2017-11-28T06:18:58.808Z,3.64
2017-11-28T06:21:25.069Z,3.66
2017-11-28T06:23:51.322Z,3.77
2017-11-28T06:26:17.599Z,3.86
2017-11-28T06:28:43.883Z,3.77
2017-11-28T06:31:10.156Z,3.86
2017-11-28T06:33:36.776Z,3.95
2017-11-28T06:36:03.430Z,3.97
2017-11-28T06:38:29.680Z,3.88
2017-11-28T06:40:55.914Z,3.97
2017-11-28T06:43:22.184Z,4.04
2017-11-28T06:45:48.404Z,4.15
2017-11-28T06:48:14.645Z,4.16
2017-11-28T06:50:40.924Z,4.14
2017-11-28T06:53:07.175Z,4.19
2017-11-28T06:55:33.413Z,4.16
2017-11-28T06:57:59.700Z,4.18
2017-11-28T07:00:25.920Z,4.15
2017-11-28T07:02:52.158Z,4.13
2017-11-28T07:05:18.425Z,4.09
2017-11-28T07:07:44.656Z,4.04
2017-11-28T07:10:10.889Z,4.07
2017-11-28T07:12:37.193Z,4.00
2017-11-28T07:15:03.451Z,3.95
2017-11-28T07:17:29.703Z,4.66
2017-11-28T07:19:56.080Z,4.91
2017-11-28T07:22:22.307Z,4.87
2017-11-28T07:24:48.565Z,5.01
2017-11-28T07:27:14.849Z,5.21
2017-11-28T07:29:41.081Z,5.12
2017-11-28T07:32:07.327Z,5.13
2017-11-28T07:34:33.743Z,5.11
2017-11-28T07:36:59.987Z,5.04
2017-11-28T07:39:26.224Z,5.12
2017-11-28T07:41:52.506Z,4.88
2017-11-28T07:44:18.752Z,4.96
2017-11-28T07:46:44.984Z,5.37
2017-11-28T07:49:11.265Z,5.57
2017-11-28T07:51:37.501Z,5.44
2017-11-28T07:54:03.722Z,5.26
2017-11-28T07:56:29.986Z,5.10
2017-11-28T07:58:56.211Z,4.98
2017-11-28T08:01:22.444Z,4.74
2017-11-28T08:03:48.712Z,4.61
2017-11-28T08:06:14.950Z,4.51
2017-11-28T08:08:41.354Z,4.53
2017-11-28T08:11:07.619Z,4.62
2017-11-28T08:13:33.852Z,4.60
2017-11-28T08:16:00.100Z,4.61
2017-11-28T08:18:26.365Z,4.61
2017-11-28T08:20:52.588Z,4.63
2017-11-28T08:23:18.824Z,4.63
2017-11-28T08:25:45.101Z,4.64
2017-11-28T08:28:11.341Z,4.65
2017-11-28T08:30:37.565Z,4.71
2017-11-28T08:33:03.814Z,4.74
2017-11-28T08:35:30.034Z,4.75
2017-11-28T08:37:56.255Z,4.69
2017-11-28T08:40:22.533Z,4.64
2017-11-28T08:42:48.768Z,4.58
2017-11-28T08:45:14.998Z,4.62
2017-11-28T08:47:41.293Z,4.69
2017-11-28T08:50:07.546Z,4.64
2017-11-28T08:52:33.776Z,4.68
2017-11-28T08:55:00.043Z,4.66
2017-11-28T08:57:26.277Z,4.68
2017-11-28T08:59:52.525Z,4.59
2017-11-28T09:02:18.824Z,4.69
2017-11-28T09:04:45.065Z,4.70
2017-11-28T09:07:11.292Z,4.62
2017-11-28T09:09:37.550Z,4.76
2017-11-28T09:12:03.789Z,4.77
2017-11-28T09:14:30.040Z,4.82
2017-11-28T09:16:56.299Z,4.83
2017-11-28T09:19:22.546Z,4.76
2017-11-28T09:21:48.767Z,4.73
2017-11-28T09:24:15.074Z,4.70
2017-11-28T09:26:41.286Z,4.77
2017-11-28T09:29:07.515Z,4.77
2017-11-28T09:31:33.775Z,4.89
2017-11-28T09:34:00.016Z,4.94
2017-11-28T09:36:26.273Z,4.96
2017-11-28T09:38:52.548Z,4.93
2017-11-28T09:41:18.778Z,4.86
2017-11-28T09:43:45.004Z,4.96
2017-11-28T09:46:11.303Z,4.89
2017-11-28T09:48:37.543Z,4.96
2017-11-28T09:51:03.786Z,4.85
2017-11-28T09:53:30.052Z,4.92
2017-11-28T09:55:56.275Z,5.02
2017-11-28T09:58:22.546Z,5.11
2017-11-28T10:00:48.811Z,5.18
2017-11-28T10:03:15.047Z,5.16
2017-11-28T10:05:41.313Z,5.34
2017-11-28T10:08:07.679Z,5.57
2017-11-28T10:10:33.925Z,5.74
2017-11-28T10:13:00.160Z,5.88
2017-11-28T10:15:26.785Z,6.03
2017-11-28T10:17:53.263Z,5.92
2017-11-28T10:20:19.705Z,5.95
2017-11-28T10:22:46.220Z,6.14
2017-11-28T10:25:12.714Z,6.34
2017-11-28T10:27:39.342Z,6.49
2017-11-28T10:30:05.880Z,6.59
2017-11-28T10:32:32.388Z,6.71
2017-11-28T10:34:58.806Z,6.62
2017-11-28T10:37:25.498Z,6.52
2017-11-28T10:39:52.114Z,6.61
2017-11-28T10:42:18.534Z,6.60
2017-11-28T10:44:45.208Z,6.57
2017-11-28T10:47:11.713Z,6.85
2017-11-28T10:49:38.136Z,6.92
2017-11-28T10:52:04.571Z,6.93
2017-11-28T10:54:31.014Z,6.91
2017-11-28T10:56:57.578Z,6.96
2017-11-28T10:59:24.194Z,6.92
2017-11-28T11:01:50.646Z,6.66
2017-11-28T11:04:17.285Z,6.49
2017-11-28T11:06:43.823Z,6.65
2017-11-28T11:09:10.056Z,6.62
2017-11-28T11:11:36.580Z,6.42
2017-11-28T11:14:03.074Z,6.31
2017-11-28T11:16:29.664Z,6.24
2017-11-28T11:18:56.301Z,6.09
2017-11-28T11:21:22.923Z,6.13
2017-11-28T11:23:49.579Z,6.28
2017-11-28T11:26:16.083Z,6.24
2017-11-28T11:28:42.473Z,6.23
2017-11-28T11:31:08.940Z,5.95
2017-11-28T11:33:35.516Z,5.96
2017-11-28T11:36:02.125Z,6.05
2017-11-28T11:38:28.567Z,6.20
2017-11-28T11:40:55.220Z,6.29
2017-11-28T11:43:21.847Z,6.27
2017-11-28T11:45:48.500Z,6.34
2017-11-28T11:48:14.933Z,6.44
2017-11-28T11:50:41.422Z,6.56
2017-11-28T11:53:07.867Z,6.54
2017-11-28T11:55:34.801Z,6.61
2017-11-28T11:58:01.488Z,6.73
2017-11-28T12:00:28.128Z,6.79
2017-11-28T12:02:54.608Z,6.94
2017-11-28T12:05:21.056Z,6.98
2017-11-28T12:07:47.632Z,7.14
2017-11-28T12:10:14.249Z,7.20
2017-11-28T12:12:40.908Z,7.18
2017-11-28T12:15:07.419Z,7.02
2017-11-28T12:17:33.834Z,7.26
2017-11-28T12:20:00.275Z,7.46
2017-11-28T12:22:26.691Z,7.63
2017-11-28T12:24:53.280Z,7.21
2017-11-28T12:27:19.699Z,7.14
2017-11-28T12:29:46.361Z,6.98
2017-11-28T12:32:12.836Z,7.21
2017-11-28T12:34:39.423Z,7.37
2017-11-28T12:37:06.060Z,7.45
2017-11-28T12:39:32.682Z,7.33
2017-11-28T12:41:59.337Z,7.16
2017-11-28T12:44:25.965Z,7.11
2017-11-28T12:46:52.615Z,6.76
2017-11-28T12:49:19.102Z,6.51
2017-11-28T12:51:45.687Z,6.39
2017-11-28T12:54:12.309Z,6.48
2017-11-28T12:56:38.827Z,6.43
2017-11-28T12:59:05.268Z,6.45
2017-11-28T13:01:31.683Z,6.69
2017-11-28T13:03:58.118Z,6.78
2017-11-28T13:06:24.543Z,6.71
2017-11-28T13:08:50.927Z,6.73
2017-11-28T13:11:17.199Z,6.56
2017-11-28T13:13:43.643Z,6.55
2017-11-28T13:16:10.085Z,6.57
2017-11-28T13:18:36.504Z,6.57
2017-11-28T13:21:03.290Z,6.39
2017-11-28T13:23:29.914Z,6.45
2017-11-28T13:25:56.370Z,6.40
2017-11-28T13:28:23.006Z,6.23
2017-11-28T13:30:49.313Z,6.32
2017-11-28T13:33:15.725Z,6.48
2017-11-28T13:35:42.173Z,6.34
2017-11-28T13:38:08.613Z,6.28
2017-11-28T13:40:35.127Z,6.13
2017-11-28T13:43:01.565Z,6.06
2017-11-28T13:45:28.011Z,6.06
2017-11-28T13:47:54.526Z,6.12
2017-11-28T13:50:20.969Z,6.19
2017-11-28T13:52:47.547Z,6.21
2017-11-28T13:55:14.161Z,6.21
2017-11-28T13:57:40.411Z,6.20
2017-11-28T14:00:06.926Z,6.16
2017-11-28T14:02:33.266Z,6.07
2017-11-28T14:04:59.891Z,6.10
2017-11-28T14:07:26.334Z,6.05
2017-11-28T14:09:52.991Z,5.92
2017-11-28T14:12:19.616Z,5.80
2017-11-28T14:14:46.265Z,5.80
2017-11-28T14:17:12.749Z,5.82
2017-11-28T14:19:39.194Z,5.77
2017-11-28T14:22:05.638Z,5.83
2017-11-28T14:24:32.153Z,5.88
2017-11-28T14:26:58.592Z,5.87
2017-11-28T14:29:25.036Z,5.89
2017-11-28T14:31:51.325Z,5.92
2017-11-28T14:34:17.918Z,5.94
2017-11-28T14:36:44.340Z,5.93
2017-11-28T14:39:11.007Z,5.85
2017-11-28T14:41:37.371Z,5.60
2017-11-28T14:44:03.807Z,5.56
2017-11-28T14:46:30.113Z,5.61
2017-11-28T14:48:56.720Z,5.64
2017-11-28T14:51:23.180Z,5.53
2017-11-28T14:53:49.826Z,5.63
2017-11-28T14:56:16.440Z,5.59
2017-11-28T14:58:43.093Z,5.66
2017-11-28T15:01:09.726Z,5.66
2017-11-28T15:03:36.369Z,5.50
2017-11-28T15:06:02.986Z,5.31
2017-11-28T15:08:29.508Z,5.34
2017-11-28T15:10:56.082Z,5.31
2017-11-28T15:13:22.757Z,5.34
2017-11-28T15:15:49.226Z,5.37
2017-11-28T15:18:15.622Z,5.38
2017-11-28T15:20:42.206Z,5.38
2017-11-28T15:23:08.671Z,5.38
2017-11-28T15:25:35.106Z,5.33
2017-11-28T15:28:01.727Z,5.25
2017-11-28T15:30:28.352Z,5.36
2017-11-28T15:32:54.595Z,5.36
2017-11-28T15:35:21.088Z,5.30
2017-11-28T15:37:47.529Z,5.31
2017-11-28T15:40:13.948Z,5.36
2017-11-28T15:42:40.328Z,5.38
2017-11-28T15:45:06.856Z,5.36
2017-11-28T15:47:33.205Z,5.39
2017-11-28T15:49:59.650Z,5.42
2017-11-28T15:52:25.956Z,5.47
2017-11-28T15:54:52.349Z,5.48
2017-11-28T15:57:18.931Z,5.52
2017-11-28T15:59:45.560Z,5.55
2017-11-28T16:02:11.967Z,5.54
2017-11-28T16:04:38.415Z,5.56
2017-11-28T16:07:05.074Z,5.57
2017-11-28T16:09:31.695Z,5.52
2017-11-28T16:11:58.352Z,5.53
2017-11-28T16:14:24.779Z,5.55
2017-11-28T16:16:51.279Z,5.57
2017-11-28T16:19:17.715Z,5.54
2017-11-28T16:21:44.230Z,5.51
2017-11-28T16:24:10.669Z,5.52
2017-11-28T16:26:37.138Z,5.51
2017-11-28T16:29:03.581Z,5.54
2017-11-28T16:31:30.198Z,5.51
2017-11-28T16:33:56.456Z,5.50
2017-11-28T16:36:22.752Z,5.51
2017-11-28T16:38:49.185Z,5.53
2017-11-28T16:41:15.614Z,5.54
2017-11-28T16:43:42.052Z,5.57
2017-11-28T16:46:08.475Z,5.55
2017-11-28T16:48:34.917Z,5.53
2017-11-28T16:51:01.305Z,5.52
2017-11-28T16:53:27.953Z,5.55
2017-11-28T16:55:54.374Z,5.57
2017-11-28T16:58:20.980Z,5.56
2017-11-28T17:00:47.547Z,5.52
2017-11-28T17:03:13.808Z,5.56
2017-11-28T17:05:40.358Z,5.58
2017-11-28T17:08:06.728Z,5.61
2017-11-28T17:10:33.342Z,5.60
2017-11-28T17:12:59.782Z,5.60
2017-11-28T17:15:26.235Z,5.63
2017-11-28T17:17:52.881Z,5.64
2017-11-28T17:20:19.300Z,5.61
2017-11-28T17:22:45.925Z,5.58
2017-11-28T17:25:12.363Z,5.56
2017-11-28T17:27:39.022Z,5.48
2017-11-28T17:30:05.624Z,5.49
2017-11-28T17:32:32.066Z,5.36
2017-11-28T17:34:58.727Z,5.38
2017-11-28T17:37:25.226Z,5.30
2017-11-28T17:39:51.738Z,5.21
2017-11-28T17:42:18.409Z,5.15
2017-11-28T17:44:44.824Z,5.18
2017-11-28T17:47:11.097Z,5.23
2017-11-28T17:49:37.710Z,5.23
2017-11-28T17:52:03.964Z,5.23
2017-11-28T17:54:30.411Z,5.25
2017-11-28T17:56:56.884Z,5.28
2017-11-28T17:59:23.325Z,5.30
2017-11-28T18:01:49.761Z,5.29
2017-11-28T18:04:16.447Z,5.27
2017-11-28T18:06:42.949Z,5.30
2017-11-28T18:09:09.366Z,5.27
2017-11-28T18:11:35.633Z,5.28
2017-11-28T18:14:02.120Z,5.28
2017-11-28T18:16:28.567Z,5.25
2017-11-28T18:18:55.085Z,5.29
2017-11-28T18:21:21.520Z,5.32
2017-11-28T18:23:47.807Z,5.36
2017-11-28T18:26:14.237Z,5.41
2017-11-28T18:28:40.870Z,5.39
2017-11-28T18:31:07.285Z,5.40
2017-11-28T18:33:33.784Z,5.40
2017-11-28T18:36:00.162Z,5.41
2017-11-28T18:38:26.611Z,5.41
2017-11-28T18:40:53.245Z,5.36
2017-11-28T18:43:19.477Z,5.38
2017-11-28T18:45:46.112Z,5.35
2017-11-28T18:48:12.734Z,5.36
2017-11-28T18:50:38.983Z,5.29
2017-11-28T18:53:05.291Z,5.22
2017-11-28T18:55:31.635Z,5.29
2017-11-28T18:57:58.250Z,5.33
2017-11-28T19:00:24.664Z,5.31
2017-11-28T19:02:51.110Z,5.21
2017-11-28T19:05:17.539Z,5.24
2017-11-28T19:07:43.828Z,5.24
2017-11-28T19:10:10.233Z,5.20
2017-11-28T19:12:36.880Z,5.14
2017-11-28T19:15:03.494Z,5.23
2017-11-28T19:17:29.768Z,5.20
2017-11-28T19:19:56.122Z,5.24
2017-11-28T19:22:22.410Z,5.26
2017-11-28T19:24:49.043Z,5.27
2017-11-28T19:27:15.550Z,5.27
2017-11-28T19:29:42.066Z,5.28
2017-11-28T19:32:08.711Z,5.29
2017-11-28T19:34:34.931Z,5.29
2017-11-28T19:37:01.364Z,5.28
2017-11-28T19:39:27.835Z,5.25
2017-11-28T19:41:54.076Z,5.25
2017-11-28T19:44:20.695Z,5.31
2017-11-28T19:46:46.945Z,5.36
2017-11-28T19:49:13.479Z,5.36
2017-11-28T19:51:39.968Z,5.33
2017-11-28T19:54:06.246Z,5.30
2017-11-28T19:56:32.851Z,5.30
2017-11-28T19:58:59.268Z,5.28
2017-11-28T20:01:25.735Z,5.27
2017-11-28T20:03:52.395Z,5.28
2017-11-28T20:06:19.016Z,5.24
2017-11-28T20:08:45.263Z,5.27
2017-11-28T20:11:11.717Z,5.30
2017-11-28T20:13:38.231Z,5.33
2017-11-28T20:16:04.709Z,5.35
2017-11-28T20:18:31.151Z,5.30
2017-11-28T20:20:57.492Z,5.32
2017-11-28T20:23:24.012Z,5.32
2017-11-28T20:25:50.700Z,5.29
2017-11-28T20:28:17.337Z,5.30
2017-11-28T20:30:43.561Z,5.32
2017-11-28T20:33:10.053Z,5.24
2017-11-28T20:35:36.644Z,5.36
2017-11-28T20:38:03.262Z,5.43
2017-11-28T20:40:29.918Z,5.48
2017-11-28T20:42:56.423Z,5.48
2017-11-28T20:45:22.937Z,5.46
2017-11-28T20:47:49.407Z,5.43
2017-11-28T20:50:16.064Z,5.39
2017-11-28T20:52:42.513Z,5.33
2017-11-28T20:55:08.817Z,5.25
2017-11-28T20:57:35.169Z,5.19
2017-11-28T21:00:03.434Z,5.12
2017-11-28T21:02:32.147Z,5.11
2017-11-28T21:05:00.771Z,5.09
2017-11-28T21:07:29.208Z,5.09
2017-11-28T21:09:58.865Z,5.06
2017-11-28T21:12:25.653Z,4.97
2017-11-28T21:14:52.259Z,5.00
2017-11-28T21:17:18.510Z,4.99
2017-11-28T21:19:44.940Z,4.96
2017-11-28T21:22:11.562Z,4.92
2017-11-28T21:24:38.220Z,4.97
2017-11-28T21:27:04.650Z,4.98
2017-11-28T21:29:31.264Z,4.99
2017-11-28T21:31:57.516Z,5.00
2017-11-28T21:34:24.161Z,5.01
2017-11-28T21:36:50.690Z,5.01
2017-11-28T21:39:17.022Z,4.91
2017-11-28T21:41:43.522Z,4.84
2017-11-28T21:44:09.736Z,4.83
2017-11-28T21:46:36.320Z,4.84
2017-11-28T21:49:02.768Z,4.88
2017-11-28T21:51:29.391Z,4.86
2017-11-28T21:53:56.005Z,4.86
2017-11-28T21:56:22.342Z,4.85
2017-11-28T21:58:48.893Z,4.86
2017-11-28T22:01:15.555Z,4.91
2017-11-28T22:03:41.997Z,4.90
2017-11-28T22:06:08.606Z,4.89
2017-11-28T22:08:35.045Z,4.86
2017-11-28T22:11:01.677Z,4.83
2017-11-28T22:13:28.292Z,4.79
2017-11-28T22:15:54.955Z,4.76
2017-11-28T22:18:21.571Z,4.67
2017-11-28T22:20:47.983Z,4.58
2017-11-28T22:23:14.255Z,4.45
2017-11-28T22:25:40.892Z,4.35
2017-11-28T22:28:07.324Z,4.24
2017-11-28T22:30:33.762Z,4.20
2017-11-28T22:33:00.373Z,4.07
2017-11-28T22:35:26.789Z,3.98
2017-11-28T22:37:53.235Z,3.90
2017-11-28T22:40:19.697Z,3.86
2017-11-28T22:42:46.212Z,3.80
2017-11-28T22:45:12.732Z,3.76
2017-11-28T22:47:39.408Z,3.71
2017-11-28T22:50:05.851Z,3.67
2017-11-28T22:52:32.456Z,3.60
2017-11-28T22:54:59.119Z,3.55
2017-11-28T22:57:25.614Z,3.53
2017-11-28T22:59:52.057Z,3.45
2017-11-28T23:02:18.422Z,3.41
2017-11-28T23:04:44.898Z,3.44
2017-11-28T23:07:11.381Z,3.42
2017-11-28T23:09:37.874Z,3.44
2017-11-28T23:12:04.335Z,3.46
2017-11-28T23:14:30.790Z,3.42
2017-11-28T23:16:57.423Z,3.42
2017-11-28T23:19:23.918Z,3.39
2017-11-28T23:21:50.357Z,3.32
2017-11-28T23:24:16.912Z,3.19
2017-11-28T23:26:43.340Z,3.12
2017-11-28T23:29:09.781Z,2.93
2017-11-28T23:31:36.440Z,2.95
2017-11-28T23:34:02.941Z,2.90
2017-11-28T23:36:29.376Z,2.85
2017-11-28T23:38:55.898Z,2.80
2017-11-28T23:41:22.343Z,2.77
2017-11-28T23:43:48.789Z,2.68
2017-11-28T23:46:15.476Z,2.63
2017-11-28T23:48:42.088Z,2.62
2017-11-28T23:51:08.722Z,2.56
2017-11-28T23:53:35.351Z,2.47
2017-11-28T23:56:01.989Z,2.45
2017-11-28T23:58:28.639Z,2.46
